Time;durP1;ratioP1;P1;durP2;ratioP2;P2;SDS_P1;SDS_P2;PMS_P1;PMS_P2;Temp;Humidity;BMP_temperature;BMP_pressure;BME280_temperature;BME280_humidity;BME280_pressure;Samples;Min_cycle;Max_cycle;Signal;HPM_P1;HPM_P2
2021/04/29 00:00:44;;;;;;;15.63;10.15;;;;;;;10.16;55.17;99545.25;3581852;39;20072;-59
2021/04/29 00:03:10;;;;;;;14.80;9.65;;;;;;;10.07;54.60;99540.03;3582851;39;20074;-56
2021/04/29 00:05:37;;;;;;;11.00;8.93;;;;;;;10.01;55.38;99540.00;3583387;39;20173;-51
2021/04/29 00:08:04;;;;;;;15.73;9.70;;;;;;;9.98;55.67;99537.41;3583518;39;20060;-56
2021/04/29 00:10:33;;;;;;;15.73;10.07;;;;;;;9.98;55.30;99540.81;3583669;39;20104;-58
2021/04/29 00:12:59;;;;;;;12.48;9.80;;;;;;;9.94;55.61;99545.06;3583203;39;20086;-54
2021/04/29 00:15:26;;;;;;;14.98;10.13;;;;;;;9.98;55.50;99545.06;3583240;39;20052;-53
2021/04/29 00:17:53;;;;;;;14.32;9.02;;;;;;;10.71;53.99;99548.28;3582927;39;20060;-52
2021/04/29 00:20:22;;;;;;;12.82;9.32;;;;;;;10.13;55.19;99551.22;3583315;39;20328;-52
2021/04/29 00:22:49;;;;;;;13.93;9.35;;;;;;;9.92;55.31;99548.44;3583418;39;20068;-53
2021/04/29 00:25:16;;;;;;;16.17;9.38;;;;;;;9.89;55.77;99550.94;3583411;39;20081;-57
2021/04/29 00:27:43;;;;;;;13.00;9.73;;;;;;;9.87;56.07;99550.09;3581615;39;20067;-55
2021/04/29 00:30:13;;;;;;;14.20;9.68;;;;;;;9.73;56.74;99549.94;3583077;39;20045;-55
2021/04/29 00:32:40;;;;;;;17.17;9.98;;;;;;;9.83;56.53;99545.78;3583129;39;20096;-52
2021/04/29 00:35:08;;;;;;;12.77;9.57;;;;;;;9.70;56.91;99553.31;3583443;39;20052;-53
2021/04/29 00:37:34;;;;;;;14.48;10.32;;;;;;;9.67;57.43;99544.78;3582825;39;20075;-51
2021/04/29 00:40:02;;;;;;;17.15;9.40;;;;;;;9.73;57.13;99544.84;3583521;39;20044;-56
2021/04/29 00:42:28;;;;;;;14.50;10.38;;;;;;;9.61;57.45;99545.59;3581841;40;20045;-53
2021/04/29 00:44:55;;;;;;;14.95;9.38;;;;;;;9.54;58.59;99545.50;3583025;39;20180;-57
2021/04/29 00:47:22;;;;;;;13.88;10.00;;;;;;;9.60;58.17;99543.00;3582586;39;20052;-53
2021/04/29 00:49:48;;;;;;;16.95;9.82;;;;;;;9.56;57.94;99542.09;3582932;39;20057;-54
2021/04/29 00:52:15;;;;;;;14.63;8.95;;;;;;;9.56;57.70;99534.44;3582834;39;20057;-58
2021/04/29 00:54:41;;;;;;;12.57;9.43;;;;;;;9.64;57.32;99540.47;3583135;39;20314;-53
2021/04/29 00:57:08;;;;;;;15.40;9.73;;;;;;;9.62;57.64;99542.19;3583391;39;20037;-59
2021/04/29 00:59:35;;;;;;;14.15;9.77;;;;;;;9.48;58.30;99538.63;3583473;39;20076;-54
2021/04/29 01:02:04;;;;;;;14.57;9.93;;;;;;;9.49;58.21;99527.53;3583483;39;20093;-56
2021/04/29 01:04:53;;;;;;;15.68;10.20;;;;;;;9.58;58.12;99534.47;3583354;39;20616;-60
2021/04/29 01:07:22;;;;;;;13.60;9.65;;;;;;;9.52;58.35;99534.38;3580710;39;20075;-53
2021/04/29 01:10:17;;;;;;;16.13;10.68;;;;;;;9.47;57.97;99539.44;3583717;39;20052;-57
2021/04/29 01:12:49;;;;;;;14.73;9.95;;;;;;;9.49;58.54;99539.47;3583303;39;20068;-60
2021/04/29 01:15:17;;;;;;;14.18;9.80;;;;;;;9.47;59.07;99530.91;3584418;39;20069;-58
2021/04/29 01:17:46;;;;;;;12.93;9.63;;;;;;;9.52;59.87;99542.03;3584257;39;20422;-52
2021/04/29 01:20:29;;;;;;;16.05;10.20;;;;;;;9.58;59.65;99535.31;3584959;39;20096;-54
2021/04/29 01:23:28;;;;;;;13.90;9.80;;;;;;;9.55;59.90;99537.81;3584400;39;20421;-52
2021/04/29 01:25:58;;;;;;;19.42;10.25;;;;;;;9.46;60.27;99527.50;3569002;40;20059;-54
2021/04/29 01:28:28;;;;;;;14.30;10.02;;;;;;;9.65;59.82;99523.44;3584505;39;20082;-53
2021/04/29 01:30:58;;;;;;;16.85;10.23;;;;;;;9.59;59.51;99526.81;3584049;39;20081;-57
2021/04/29 01:33:25;;;;;;;12.70;9.90;;;;;;;9.54;60.24;99520.78;3584334;39;20408;-58
2021/04/29 01:35:52;;;;;;;14.25;10.02;;;;;;;9.40;61.60;99524.88;3584140;39;20413;-56
2021/04/29 01:38:19;;;;;;;16.33;10.52;;;;;;;9.33;60.83;99528.19;3583874;39;20349;-57
2021/04/29 01:40:46;;;;;;;17.52;10.57;;;;;;;9.28;60.47;99525.59;3583806;39;20072;-53
2021/04/29 01:43:13;;;;;;;13.55;9.73;;;;;;;9.42;60.83;99521.50;3584001;39;20056;-55
2021/04/29 01:45:41;;;;;;;16.05;10.82;;;;;;;9.31;60.88;99517.13;3584133;39;20126;-57
2021/04/29 01:48:10;;;;;;;15.05;9.57;;;;;;;9.32;61.10;99516.28;3583919;39;20088;-55
2021/04/29 01:50:37;;;;;;;13.55;10.43;;;;;;;9.26;61.17;99509.41;3584061;39;20052;-53
2021/04/29 01:53:05;;;;;;;18.00;10.68;;;;;;;9.24;61.41;99507.66;3580255;39;20082;-57
2021/04/29 01:55:33;;;;;;;14.52;9.50;;;;;;;9.37;60.46;99504.41;3583852;39;20067;-57
2021/04/29 01:58:01;;;;;;;14.30;10.55;;;;;;;9.33;61.39;99500.09;3583585;39;20060;-57
2021/04/29 02:00:27;;;;;;;15.50;9.82;;;;;;;9.24;61.41;99500.00;3583844;39;20068;-53
2021/04/29 02:02:54;;;;;;;15.80;10.70;;;;;;;9.23;61.81;99504.25;3583611;39;20080;-55
2021/04/29 02:05:21;;;;;;;14.27;10.57;;;;;;;9.33;62.17;99500.09;3583786;39;20406;-50
2021/04/29 02:07:47;;;;;;;15.65;10.70;;;;;;;9.27;62.27;99497.47;3583452;39;20068;-53
2021/04/29 02:10:16;;;;;;;15.80;10.02;;;;;;;9.38;62.01;99495.88;3583759;39;20077;-56
2021/04/29 02:12:50;;;;;;;14.73;9.63;;;;;;;9.37;62.34;99487.38;3583287;39;20119;-58
2021/04/29 02:15:17;;;;;;;14.77;10.82;;;;;;;9.48;62.72;99482.41;3583370;39;20051;-60
2021/04/29 02:17:49;;;;;;;15.35;9.88;;;;;;;9.57;62.76;99479.94;3583480;39;20115;-53
2021/04/29 02:20:18;;;;;;;11.98;9.70;;;;;;;9.44;62.46;99478.09;3583486;39;20357;-54
2021/04/29 02:22:45;;;;;;;15.35;10.25;;;;;;;9.34;62.96;99479.69;3583596;39;20422;-54
2021/04/29 02:25:13;;;;;;;14.13;9.73;;;;;;;9.57;60.57;99474.84;3583619;39;20406;-53
2021/04/29 02:27:40;;;;;;;16.55;10.63;;;;;;;9.43;61.76;99463.63;3583590;39;20088;-55
2021/04/29 02:30:13;;;;;;;15.48;10.35;;;;;;;9.64;62.42;99471.47;3583905;39;20052;-55
2021/04/29 02:32:40;;;;;;;16.52;10.65;;;;;;;9.72;61.33;99469.00;3583927;39;20404;-53
2021/04/29 02:35:10;;;;;;;15.25;10.13;;;;;;;9.68;61.35;99459.59;3584369;39;20045;-60
2021/04/29 02:37:38;;;;;;;13.48;10.15;;;;;;;9.59;61.95;99447.56;3584471;39;20112;-53
2021/04/29 02:40:08;;;;;;;13.20;9.95;;;;;;;9.27;62.62;99448.94;3580685;39;20063;-61
2021/04/29 02:42:35;;;;;;;16.63;11.15;;;;;;;9.36;62.64;99449.91;3584086;39;20353;-58
2021/04/29 02:45:02;;;;;;;14.65;11.23;;;;;;;9.23;62.13;99447.19;3583379;39;20059;-53
2021/04/29 02:47:29;;;;;;;17.42;10.52;;;;;;;9.22;62.07;99445.50;3583470;39;20052;-52
2021/04/29 02:49:55;;;;;;;15.20;10.65;;;;;;;9.52;59.99;99438.16;3584075;39;20476;-50
2021/04/29 02:52:22;;;;;;;15.95;10.57;;;;;;;9.43;60.75;99436.38;3584279;39;20085;-59
2021/04/29 02:54:49;;;;;;;16.90;10.75;;;;;;;9.32;61.42;99432.81;3584948;39;20091;-59
2021/04/29 02:57:23;;;;;;;15.25;10.27;;;;;;;9.33;61.30;99424.31;3584269;39;20063;-54
2021/04/29 02:59:50;;;;;;;15.35;11.40;;;;;;;9.39;61.63;99438.88;3583853;39;20068;-55
2021/04/29 03:02:16;;;;;;;14.75;10.13;;;;;;;9.57;61.00;99433.09;3582547;39;20039;-57
2021/04/29 03:04:43;;;;;;;13.23;10.63;;;;;;;9.52;60.21;99432.16;3583636;39;20052;-53
2021/04/29 03:07:10;;;;;;;17.38;11.02;;;;;;;9.57;59.60;99427.97;3584142;39;20059;-54
2021/04/29 03:09:48;;;;;;;14.02;10.05;;;;;;;9.47;60.36;99431.25;3583658;39;20436;-56
2021/04/29 03:12:16;;;;;;;14.05;11.02;;;;;;;9.44;60.87;99427.00;3580510;39;20057;-56
2021/04/29 03:14:42;;;;;;;16.38;10.43;;;;;;;9.47;61.91;99431.25;3583036;39;20431;-58
2021/04/29 03:17:09;;;;;;;16.63;10.63;;;;;;;9.79;59.71;99418.78;3582875;39;20288;-52
2021/04/29 03:19:36;;;;;;;15.82;9.65;;;;;;;9.99;59.82;99426.63;3583584;39;20060;-61
2021/04/29 03:22:02;;;;;;;14.07;9.88;;;;;;;9.86;60.10;99418.84;3583610;39;20085;-55
2021/04/29 03:24:30;;;;;;;14.35;9.93;;;;;;;9.97;60.28;99421.47;3583455;39;20053;-58
2021/04/29 03:27:17;;;;;;;15.45;10.48;;;;;;;9.50;61.74;99413.41;3580657;39;20040;-53
2021/04/29 03:29:44;;;;;;;17.65;11.18;;;;;;;9.57;61.42;99413.50;3583324;39;20337;-56
2021/04/29 03:32:10;;;;;;;15.75;10.55;;;;;;;9.51;62.54;99415.97;3583660;39;20052;-51
2021/04/29 03:34:38;;;;;;;19.65;9.70;;;;;;;9.61;61.76;99415.25;3583309;39;20353;-53
2021/04/29 03:37:04;;;;;;;26.65;10.13;;;;;;;9.77;61.94;99415.38;3579137;39;20057;-54
2021/04/29 03:39:31;;;;;;;16.80;10.13;;;;;;;9.62;63.36;99411.84;3582865;39;20064;-55
2021/04/29 03:41:57;;;;;;;15.50;10.00;;;;;;;9.66;61.93;99412.72;3583526;39;20088;-55
2021/04/29 03:44:25;;;;;;;13.80;10.32;;;;;;;9.75;62.49;99415.34;3583088;39;20052;-58
2021/04/29 03:46:51;;;;;;;12.10;9.30;;;;;;;9.89;62.55;99406.09;3582880;39;20297;-56
2021/04/29 03:49:18;;;;;;;14.55;8.93;;;;;;;9.88;62.79;99400.94;3583131;39;20080;-59
2021/04/29 03:51:45;;;;;;;14.05;9.15;;;;;;;9.92;63.03;99407.81;3582726;39;20475;-51
2021/04/29 03:54:11;;;;;;;15.38;9.75;;;;;;;10.03;62.30;99410.44;3582954;39;20044;-53
2021/04/29 03:56:38;;;;;;;14.32;9.20;;;;;;;9.82;62.27;99408.59;3582719;39;20096;-52
2021/04/29 03:59:05;;;;;;;15.40;10.13;;;;;;;9.85;61.76;99414.59;3579039;39;20040;-55
2021/04/29 04:01:31;;;;;;;14.10;9.48;;;;;;;10.16;61.63;99415.66;3582864;39;20152;-59
2021/04/29 04:03:58;;;;;;;12.10;9.13;;;;;;;10.18;61.58;99411.41;3581545;40;20064;-55
2021/04/29 04:06:28;;;;;;;16.88;10.05;;;;;;;10.62;60.34;99412.53;3582697;39;20134;-58
2021/04/29 04:08:55;;;;;;;16.20;10.20;;;;;;;10.39;61.58;99404.72;3582595;39;20398;-55
2021/04/29 04:11:21;;;;;;;14.23;10.25;;;;;;;10.37;61.31;99417.53;3582870;39;20064;-50
2021/04/29 04:13:51;;;;;;;12.07;9.77;;;;;;;10.08;62.36;99419.88;3582769;39;20052;-58
2021/04/29 04:16:17;;;;;;;13.18;10.10;;;;;;;9.92;63.68;99423.16;3582563;39;20413;-58
2021/04/29 04:18:44;;;;;;;15.63;10.35;;;;;;;10.31;61.92;99420.06;3582725;39;20048;-55
2021/04/29 04:21:10;;;;;;;15.48;10.55;;;;;;;10.44;61.82;99415.84;3583114;39;20053;-59
2021/04/29 04:23:37;;;;;;;14.55;9.70;;;;;;;10.20;63.16;99406.28;3583283;39;20325;-53
2021/04/29 04:26:03;;;;;;;16.23;9.55;;;;;;;10.14;63.49;99396.88;3583272;39;20059;-54
2021/04/29 04:28:30;;;;;;;14.90;10.07;;;;;;;10.19;63.13;99407.16;3582849;39;20045;-57
2021/04/29 04:30:56;;;;;;;15.40;9.98;;;;;;;10.08;63.66;99408.78;3582804;39;20059;-54
2021/04/29 04:33:23;;;;;;;13.60;10.50;;;;;;;9.87;64.04;99415.44;3583050;39;20352;-55
2021/04/29 04:35:49;;;;;;;16.95;10.13;;;;;;;9.70;64.76;99404.22;3582875;39;20430;-55
2021/04/29 04:38:16;;;;;;;16.35;10.50;;;;;;;9.96;65.27;99399.31;3582879;39;20049;-53
2021/04/29 04:40:44;;;;;;;17.45;10.98;;;;;;;9.82;66.18;99400.91;3582731;39;20060;-56
2021/04/29 04:43:10;;;;;;;20.42;11.13;;;;;;;9.66;66.55;99394.84;3582747;39;20412;-54
2021/04/29 04:45:37;;;;;;;16.60;10.80;;;;;;;9.88;65.98;99394.13;3582665;39;20084;-56
2021/04/29 04:48:04;;;;;;;19.70;10.93;;;;;;;9.65;66.83;99396.50;3623625;22;20073;-48
2021/04/29 04:50:30;;;;;;;15.75;10.90;;;;;;;10.23;66.10;99411.44;3583806;39;20424;-51
2021/04/29 04:52:57;;;;;;;22.25;12.20;;;;;;;10.39;64.79;99427.75;3584015;39;20096;-52
2021/04/29 04:55:23;;;;;;;22.63;16.55;;;;;;;10.83;63.16;99442.50;3583969;39;20052;-51
2021/04/29 04:57:50;;;;;;;16.52;11.23;;;;;;;10.18;65.72;99444.66;3583503;39;20092;-50
2021/04/29 05:00:17;;;;;;;13.88;10.35;;;;;;;10.14;65.34;99432.69;3583887;39;20041;-51
2021/04/29 05:02:44;;;;;;;14.30;9.68;;;;;;;10.41;64.49;99446.56;3583409;39;20064;-52
2021/04/29 05:05:12;;;;;;;17.77;9.55;;;;;;;10.58;63.03;99450.06;3584100;39;20052;-48
2021/04/29 05:07:38;;;;;;;18.63;10.40;;;;;;;10.75;63.64;99442.47;3583599;39;20087;-53
2021/04/29 05:10:05;;;;;;;14.75;8.75;;;;;;;10.75;62.89;99437.34;3579829;39;20092;-52
2021/04/29 05:12:32;;;;;;;15.85;8.75;;;;;;;11.18;62.25;99450.31;3584182;39;20787;-51
2021/04/29 05:14:58;;;;;;;14.73;9.82;;;;;;;11.45;61.27;99449.53;3584396;39;20053;-54
2021/04/29 05:17:25;;;;;;;12.05;8.20;;;;;;;11.18;61.78;99433.25;3584460;39;20067;-48
2021/04/29 05:19:51;;;;;;;14.10;8.30;;;;;;;11.66;60.47;99453.84;3584141;39;20044;-53
2021/04/29 05:22:18;;;;;;;14.77;8.48;;;;;;;11.56;60.10;99457.28;3583893;39;20056;-51
2021/04/29 05:24:44;;;;;;;11.95;8.65;;;;;;;11.15;62.19;99438.38;3583825;39;20076;-54
2021/04/29 05:27:11;;;;;;;13.20;8.85;;;;;;;11.55;61.04;99441.00;3583728;39;20123;-54
2021/04/29 05:29:38;;;;;;;15.05;10.38;;;;;;;11.83;59.89;99438.50;3583634;39;20064;-51
2021/04/29 05:32:05;;;;;;;14.95;11.23;;;;;;;11.94;59.13;99434.25;3583060;39;20040;-53
2021/04/29 05:34:33;;;;;;;15.90;11.50;;;;;;;11.88;59.01;99436.81;3583645;39;20061;-53
2021/04/29 05:36:59;;;;;;;14.30;11.05;;;;;;;11.85;58.96;99436.81;3586092;39;20088;-54
2021/04/29 05:39:26;;;;;;;13.43;10.20;;;;;;;11.63;60.20;99434.19;3584830;39;20056;-53
2021/04/29 05:41:53;;;;;;;12.93;10.13;;;;;;;11.27;63.65;99429.84;3583355;39;20052;-49
2021/04/29 05:44:20;;;;;;;11.82;8.77;;;;;;;11.49;62.88;99430.75;3582937;39;20493;-52
2021/04/29 05:46:50;;;;;;;13.60;9.13;;;;;;;10.94;65.60;99421.19;3583170;39;20070;-51
2021/04/29 05:49:16;;;;;;;13.23;9.90;;;;;;;11.49;64.36;99433.31;3583241;39;20052;-50
2021/04/29 05:51:43;;;;;;;17.65;9.80;;;;;;;11.01;65.34;99416.97;3583080;39;20072;-53
2021/04/29 05:54:10;;;;;;;13.25;9.60;;;;;;;11.25;64.28;99423.03;3583731;39;20056;-49
2021/04/29 05:56:37;;;;;;;15.27;10.15;;;;;;;11.27;66.04;99419.59;3583241;39;20461;-56
2021/04/29 05:59:05;;;;;;;13.63;10.00;;;;;;;11.34;66.41;99431.59;3582294;39;20087;-53
2021/04/29 06:01:32;;;;;;;14.57;11.38;;;;;;;10.83;72.11;99422.88;3583494;39;20780;-54
2021/04/29 06:04:02;;;;;;;18.02;11.20;;;;;;;11.05;69.73;99428.09;3583393;39;20080;-49
2021/04/29 06:06:29;;;;;;;17.23;11.73;;;;;;;10.81;73.98;99424.56;3583714;39;20053;-55
2021/04/29 06:08:56;;;;;;;15.55;11.52;;;;;;;10.22;77.24;99422.53;3583078;39;20747;-54
2021/04/29 06:11:24;;;;;;;13.13;11.80;;;;;;;10.29;77.58;99426.00;3582456;39;20081;-53
2021/04/29 06:13:51;;;;;;;15.05;12.18;;;;;;;10.16;78.93;99425.03;3583237;39;20185;-54
2021/04/29 06:16:17;;;;;;;15.13;12.40;;;;;;;10.01;81.68;99423.22;3583499;40;20048;-52
2021/04/29 06:18:45;;;;;;;15.07;12.45;;;;;;;10.03;81.54;99428.34;3582558;40;20049;-51
2021/04/29 06:21:12;;;;;;;18.23;13.13;;;;;;;9.94;81.44;99434.25;3582743;40;20094;-55
2021/04/29 06:23:39;;;;;;;18.65;13.02;;;;;;;10.10;82.53;99436.06;3582880;39;20414;-50
2021/04/29 06:26:05;;;;;;;16.55;13.88;;;;;;;9.79;85.22;99440.06;3582762;40;20056;-49
2021/04/29 06:28:33;;;;;;;19.77;14.48;;;;;;;9.87;85.78;99440.16;3582414;40;20048;-52
2021/04/29 06:31:00;;;;;;;23.02;17.02;;;;;;;9.54;88.68;99441.56;3582789;40;20086;-49
2021/04/29 06:33:27;;;;;;;23.88;17.67;;;;;;;9.89;88.64;99439.34;3582936;39;20059;-54
2021/04/29 06:35:55;;;;;;;19.10;15.70;;;;;;;9.63;91.01;99448.47;3582648;40;20054;-50
2021/04/29 06:38:23;;;;;;;20.08;15.82;;;;;;;9.65;93.11;99444.22;3582824;40;20163;-54
2021/04/29 06:40:50;;;;;;;25.83;16.25;;;;;;;9.66;90.96;99440.84;3582047;40;20055;-55
2021/04/29 06:43:17;;;;;;;18.63;14.77;;;;;;;9.87;91.48;99446.13;3583147;39;20111;-52
2021/04/29 06:45:44;;;;;;;20.83;16.50;;;;;;;9.18;96.77;99453.09;3583462;39;20438;-53
2021/04/29 06:48:11;;;;;;;26.17;17.25;;;;;;;9.11;97.76;99436.03;3583474;39;20096;-50
2021/04/29 06:50:39;;;;;;;20.58;16.95;;;;;;;8.82;100.00;99435.66;3574246;39;20048;-51
2021/04/29 06:53:06;;;;;;;25.90;19.60;;;;;;;8.61;100.00;99426.06;3580910;39;20437;-47
2021/04/29 06:55:33;;;;;;;27.58;20.92;;;;;;;8.88;100.00;99419.59;3583693;39;20144;-48
2021/04/29 06:58:00;;;;;;;31.23;21.23;;;;;;;8.75;100.00;99413.47;3589484;39;20045;-52
2021/04/29 07:00:27;;;;;;;22.33;18.95;;;;;;;8.96;100.00;99417.09;3591923;39;20040;-51
2021/04/29 07:02:59;;;;;;;30.05;20.90;;;;;;;8.76;100.00;99410.06;3588746;39;20053;-55
2021/04/29 07:05:27;;;;;;;27.80;19.30;;;;;;;8.78;100.00;99408.41;3584405;39;20080;-52
2021/04/29 07:07:56;;;;;;;21.92;18.48;;;;;;;8.96;100.00;99419.66;3574498;39;20044;-52
2021/04/29 07:10:24;;;;;;;23.42;19.70;;;;;;;9.10;100.00;99431.72;3589654;39;20639;-51
2021/04/29 07:13:07;;;;;;;23.95;17.40;;;;;;;9.35;100.00;99427.75;3583544;39;20049;-54
2021/04/29 07:15:34;;;;;;;24.30;18.45;;;;;;;9.18;100.00;99416.50;3589767;39;20824;-55
2021/04/29 07:18:04;;;;;;;24.13;17.83;;;;;;;9.23;100.00;99419.09;3585443;39;20052;-49
2021/04/29 07:20:36;;;;;;;24.70;18.52;;;;;;;8.94;100.00;99432.41;3583468;39;20067;-45
2021/04/29 07:23:05;;;;;;;21.55;18.10;;;;;;;9.58;100.00;99424.56;3582304;39;20075;-46
2021/04/29 07:25:34;;;;;;;21.50;17.27;;;;;;;9.96;99.83;99430.00;3582400;40;20056;-54
2021/04/29 07:28:01;;;;;;;20.52;16.70;;;;;;;9.66;100.00;99426.34;3582591;39;20406;-48
2021/04/29 07:30:28;;;;;;;20.92;17.48;;;;;;;10.06;100.00;99433.47;3581451;39;20051;-51
2021/04/29 07:32:55;;;;;;;21.40;16.30;;;;;;;10.18;98.55;99433.59;3581820;39;20048;-48
2021/04/29 07:35:22;;;;;;;21.33;16.83;;;;;;;9.60;100.00;99433.09;3582184;39;20079;-47
2021/04/29 07:37:49;;;;;;;20.98;17.88;;;;;;;9.76;100.00;99432.41;3582419;39;20056;-50
2021/04/29 07:40:16;;;;;;;19.83;17.73;;;;;;;9.87;100.00;99432.47;3583052;39;20103;-50
2021/04/29 07:42:43;;;;;;;20.60;16.77;;;;;;;9.78;100.00;99432.41;3582449;39;20060;-49
2021/04/29 07:45:11;;;;;;;19.50;16.30;;;;;;;10.23;100.00;99437.03;3582579;39;20051;-49
2021/04/29 07:47:37;;;;;;;21.05;16.30;;;;;;;10.57;98.83;99445.78;3581933;39;20063;-47
2021/04/29 07:50:05;;;;;;;21.67;17.50;;;;;;;9.90;100.00;99438.50;3582995;39;20417;-50
2021/04/29 07:52:31;;;;;;;27.17;18.58;;;;;;;9.63;100.00;99426.31;3581598;39;20071;-46
2021/04/29 07:54:58;;;;;;;25.48;19.83;;;;;;;9.49;100.00;99433.00;3583709;39;20081;-49
2021/04/29 07:57:24;;;;;;;26.05;19.63;;;;;;;10.02;100.00;99434.31;3583047;39;20064;-48
2021/04/29 07:59:51;;;;;;;23.00;19.58;;;;;;;9.88;100.00;99432.50;3581919;39;20091;-52
2021/04/29 08:02:17;;;;;;;24.88;19.77;;;;;;;9.60;100.00;99433.09;3582303;40;20100;-49
2021/04/29 08:04:44;;;;;;;24.60;18.00;;;;;;;9.79;100.00;99422.19;3582082;39;20074;-50
2021/04/29 08:07:11;;;;;;;23.30;20.02;;;;;;;9.44;100.00;99419.34;3582301;40;20052;-49
2021/04/29 08:09:37;;;;;;;25.45;20.38;;;;;;;9.39;100.00;99410.78;3582249;39;20044;-50
2021/04/29 08:12:04;;;;;;;25.30;20.13;;;;;;;9.57;100.00;99402.44;3582527;39;20056;-48
2021/04/29 08:14:31;;;;;;;24.67;20.40;;;;;;;9.50;100.00;99408.31;3582235;39;20064;-48
2021/04/29 08:16:57;;;;;;;25.20;21.73;;;;;;;9.61;100.00;99412.69;3582532;39;20040;-50
2021/04/29 08:19:24;;;;;;;27.17;19.73;;;;;;;9.76;100.00;99411.09;3582238;39;20060;-48
2021/04/29 08:21:51;;;;;;;25.95;18.83;;;;;;;10.44;100.00;99408.16;3581430;40;20077;-49
2021/04/29 08:24:18;;;;;;;22.15;17.90;;;;;;;10.26;100.00;99411.50;3581232;39;20045;-52
2021/04/29 08:26:44;;;;;;;22.98;16.83;;;;;;;10.48;100.00;99399.66;3582487;39;20057;-48
2021/04/29 08:29:11;;;;;;;24.70;19.38;;;;;;;10.24;100.00;99402.94;3582778;39;20044;-49
2021/04/29 08:31:38;;;;;;;21.98;17.77;;;;;;;10.79;100.00;99407.50;3582452;39;20052;-52
2021/04/29 08:34:06;;;;;;;22.98;19.40;;;;;;;10.18;100.00;99405.44;3581403;39;20102;-47
2021/04/29 08:36:32;;;;;;;24.23;18.98;;;;;;;10.51;100.00;99404.81;3582162;39;20088;-49
2021/04/29 08:39:09;;;;;;;22.77;19.13;;;;;;;10.41;100.00;99397.94;3582049;39;20060;-48
2021/04/29 08:41:36;;;;;;;24.13;18.30;;;;;;;10.39;100.00;99400.47;3582170;39;20129;-52
2021/04/29 08:44:04;;;;;;;20.90;17.33;;;;;;;10.96;100.00;99395.63;3587392;40;20044;-52
2021/04/29 08:46:35;;;;;;;21.25;18.08;;;;;;;10.70;100.00;99395.50;3590388;39;20060;-51
2021/04/29 08:49:03;;;;;;;22.98;19.38;;;;;;;10.58;100.00;99390.31;3581342;40;20052;-47
2021/04/29 08:51:33;;;;;;;24.45;18.95;;;;;;;10.89;100.00;99383.63;3582643;40;20321;-51
2021/04/29 08:54:08;;;;;;;22.90;18.30;;;;;;;11.35;100.00;99399.97;3581370;39;20043;-50
2021/04/29 08:56:37;;;;;;;18.63;16.63;;;;;;;11.63;100.00;99402.56;3582278;39;20089;-51
2021/04/29 08:59:13;;;;;;;21.25;17.90;;;;;;;12.04;99.87;99392.34;3582454;39;20045;-50
2021/04/29 09:01:48;;;;;;;21.95;16.08;;;;;;;12.12;97.68;99400.03;3581601;39;20059;-47
2021/04/29 09:04:17;;;;;;;21.20;16.67;;;;;;;11.95;99.56;99400.88;3582668;39;20134;-51
2021/04/29 09:06:46;;;;;;;17.67;15.77;;;;;;;12.45;96.91;99401.66;3581660;39;20048;-50
2021/04/29 09:09:21;;;;;;;21.90;16.95;;;;;;;12.88;93.84;99404.06;3581933;39;20067;-51
2021/04/29 09:11:53;;;;;;;18.58;15.50;;;;;;;12.77;94.47;99411.84;3582242;39;20129;-51
2021/04/29 09:14:40;;;;;;;17.08;14.85;;;;;;;12.67;93.40;99411.00;3582198;39;20085;-48
2021/04/29 09:17:10;;;;;;;20.33;17.37;;;;;;;12.79;94.89;99404.09;3581292;39;20053;-53
2021/04/29 09:19:47;;;;;;;21.85;17.60;;;;;;;12.90;93.88;99400.66;3582440;39;20048;-51
2021/04/29 09:22:22;;;;;;;19.90;17.77;;;;;;;12.45;97.04;99402.50;3582010;39;20056;-53
2021/04/29 09:24:49;;;;;;;20.65;17.60;;;;;;;13.13;94.02;99403.09;3581187;39;20048;-53
2021/04/29 09:27:28;;;;;;;21.38;17.50;;;;;;;14.10;90.07;99400.69;3580360;40;20056;-49
2021/04/29 09:29:59;;;;;;;19.70;17.60;;;;;;;14.05;90.50;99384.44;3582139;39;20101;-47
2021/04/29 09:32:32;;;;;;;17.92;16.13;;;;;;;14.74;86.77;99384.59;3581415;39;20073;-50
2021/04/29 09:35:01;;;;;;;19.27;16.83;;;;;;;15.72;83.44;99387.53;3577402;40;20053;-50
2021/04/29 09:37:34;;;;;;;18.92;16.20;;;;;;;15.92;84.04;99382.88;3583615;39;20446;-47
2021/04/29 09:40:18;;;;;;;16.92;15.23;;;;;;;15.23;84.74;99377.91;3583102;39;20048;-51
2021/04/29 09:42:47;;;;;;;17.27;15.48;;;;;;;16.55;81.50;99376.56;3584042;39;20064;-53
2021/04/29 09:45:31;;;;;;;15.80;14.13;;;;;;;16.46;76.13;99368.97;3583279;39;20055;-50
2021/04/29 09:48:04;;;;;;;18.92;16.25;;;;;;;15.52;78.37;99368.00;3583482;39;20052;-47
2021/04/29 09:50:38;;;;;;;18.92;16.70;;;;;;;15.46;81.89;99370.69;3583586;39;20071;-52
2021/04/29 09:53:09;;;;;;;19.13;17.15;;;;;;;15.58;82.51;99364.47;3582864;39;20076;-52
2021/04/29 09:55:38;;;;;;;18.58;16.77;;;;;;;15.87;81.62;99360.59;3583296;39;20138;-52
2021/04/29 09:58:16;;;;;;;23.25;17.98;;;;;;;15.72;81.26;99361.72;3582632;39;20084;-53
2021/04/29 10:00:48;;;;;;;22.38;20.08;;;;;;;15.49;85.47;99354.31;3581990;40;20036;-52
2021/04/29 10:03:16;;;;;;;19.42;17.27;;;;;;;16.74;77.74;99356.38;3582114;39;20044;-52
2021/04/29 10:05:45;;;;;;;20.63;18.42;;;;;;;16.69;77.61;99363.34;3582083;40;20044;-47
2021/04/29 10:08:15;;;;;;;19.55;17.38;;;;;;;19.03;69.56;99367.84;3581453;39;20068;-50
2021/04/29 10:10:48;;;;;;;17.85;16.15;;;;;;;18.82;69.19;99370.19;3582243;39;20080;-52
2021/04/29 10:13:18;;;;;;;17.80;15.75;;;;;;;19.17;66.28;99370.03;3582391;39;20081;-55
2021/04/29 10:15:45;;;;;;;17.45;15.70;;;;;;;19.17;63.40;99378.66;3581954;39;20100;-52
2021/04/29 10:18:13;;;;;;;22.85;17.95;;;;;;;18.70;68.23;99367.09;3579951;39;20059;-49
2021/04/29 10:20:48;;;;;;;18.08;16.20;;;;;;;19.76;60.58;99357.75;3590228;39;20052;-49
2021/04/29 10:23:19;;;;;;;18.10;16.35;;;;;;;19.50;62.03;99366.38;3586506;39;20055;-53
2021/04/29 10:25:55;;;;;;;19.85;17.95;;;;;;;17.92;69.49;99359.69;3582645;39;20414;-51
2021/04/29 10:28:35;;;;;;;19.77;17.77;;;;;;;17.80;68.75;99367.78;3583217;39;20052;-49
2021/04/29 10:31:20;;;;;;;21.17;18.90;;;;;;;16.75;73.05;99363.25;3581360;39;20414;-53
2021/04/29 10:33:56;;;;;;;21.08;18.98;;;;;;;16.43;74.39;99359.53;3573215;40;20106;-53
2021/04/29 10:36:34;;;;;;;22.38;20.08;;;;;;;16.21;74.55;99361.69;3583280;39;20068;-50
2021/04/29 10:39:21;;;;;;;22.23;19.92;;;;;;;15.98;78.72;99369.00;3583041;39;20465;-50
2021/04/29 10:42:09;;;;;;;22.83;20.33;;;;;;;15.98;77.93;99371.56;3583755;39;20052;-50
2021/04/29 10:44:47;;;;;;;22.13;19.83;;;;;;;15.91;77.63;99368.25;3583568;39;20056;-53
2021/04/29 10:47:28;;;;;;;24.42;21.95;;;;;;;15.72;81.49;99369.47;3580902;39;20466;-54
2021/04/29 10:50:16;;;;;;;24.38;21.52;;;;;;;15.72;77.99;99377.19;3582717;39;20041;-51
2021/04/29 10:52:51;;;;;;;24.63;22.13;;;;;;;15.69;73.99;99374.66;3604792;22;20048;-49
2021/04/29 10:55:32;;;;;;;24.02;21.50;;;;;;;16.69;72.18;99376.28;3575792;40;20056;-52
2021/04/29 10:58:00;;;;;;;23.35;20.95;;;;;;;17.17;66.14;99384.75;3578613;40;20060;-50
2021/04/29 11:00:30;;;;;;;22.85;20.60;;;;;;;17.19;65.85;99382.13;3577389;40;20044;-50
2021/04/29 11:02:59;;;;;;;23.10;20.88;;;;;;;16.76;66.57;99383.03;3574467;40;20403;-54
2021/04/29 11:05:28;;;;;;;24.35;22.08;;;;;;;16.54;69.59;99382.56;3566206;40;20139;-52
2021/04/29 11:08:01;;;;;;;25.33;22.63;;;;;;;16.45;68.17;99381.03;3565414;40;20062;-51
2021/04/29 11:10:35;;;;;;;25.20;22.50;;;;;;;16.28;68.36;99383.94;3566027;40;20072;-53
2021/04/29 11:13:03;;;;;;;25.55;22.95;;;;;;;16.43;68.45;99390.56;3558960;40;20062;-48
2021/04/29 11:15:40;;;;;;;24.67;22.08;;;;;;;18.30;60.05;99391.50;3564565;40;20403;-53
2021/04/29 11:18:10;;;;;;;24.38;21.88;;;;;;;18.18;60.34;99403.06;3560803;40;20503;-49
2021/04/29 11:20:59;;;;;;;24.77;22.25;;;;;;;17.04;64.84;99401.41;3563977;40;20054;-51
2021/04/29 11:23:41;;;;;;;25.33;22.65;;;;;;;16.99;67.35;99401.50;3562635;40;20361;-52
2021/04/29 11:26:13;;;;;;;25.13;22.45;;;;;;;17.21;66.96;99407.06;3567061;40;20044;-49
2021/04/29 11:28:39;;;;;;;27.00;24.20;;;;;;;16.64;67.23;99401.34;3566182;40;20048;-51
2021/04/29 11:31:06;;;;;;;25.98;23.48;;;;;;;17.11;66.25;99400.41;3566234;40;20065;-52